sensor_id;sensor_type;location;lat;lon;timestamp;temperature;humidity
8882;DHT22;4477;48.736;9.176;2022-08-19T00:00:32;18.80;99.90
8882;DHT22;4477;48.736;9.176;2022-08-19T00:02:59;18.80;99.90
8882;DHT22;4477;48.736;9.176;2022-08-19T00:05:26;18.80;99.90
8882;DHT22;4477;48.736;9.176;2022-08-19T00:07:52;18.80;99.90
8882;DHT22;4477;48.736;9.176;2022-08-19T00:10:20;18.80;99.90
8882;DHT22;4477;48.736;9.176;2022-08-19T00:12:49;18.80;99.90
8882;DHT22;4477;48.736;9.176;2022-08-19T00:15:18;18.80;99.90
8882;DHT22;4477;48.736;9.176;2022-08-19T00:17:46;18.80;99.90
8882;DHT22;4477;48.736;9.176;2022-08-19T00:20:16;18.80;99.90
8882;DHT22;4477;48.736;9.176;2022-08-19T00:22:44;18.80;99.90
8882;DHT22;4477;48.736;9.176;2022-08-19T00:25:11;18.80;99.90
8882;DHT22;4477;48.736;9.176;2022-08-19T00:27:39;18.70;99.90
8882;DHT22;4477;48.736;9.176;2022-08-19T00:30:08;18.70;99.90
8882;DHT22;4477;48.736;9.176;2022-08-19T00:32:36;18.80;99.90
8882;DHT22;4477;48.736;9.176;2022-08-19T00:35:05;18.80;99.90
8882;DHT22;4477;48.736;9.176;2022-08-19T00:37:32;18.70;99.90
8882;DHT22;4477;48.736;9.176;2022-08-19T00:40:02;18.70;99.90
8882;DHT22;4477;48.736;9.176;2022-08-19T00:42:29;18.70;99.90
8882;DHT22;4477;48.736;9.176;2022-08-19T00:44:56;18.70;99.90
8882;DHT22;4477;48.736;9.176;2022-08-19T00:47:25;18.70;99.90
8882;DHT22;4477;48.736;9.176;2022-08-19T00:49:55;18.60;99.90
8882;DHT22;4477;48.736;9.176;2022-08-19T00:52:26;18.60;99.90
8882;DHT22;4477;48.736;9.176;2022-08-19T00:54:56;18.50;99.90
8882;DHT22;4477;48.736;9.176;2022-08-19T00:57:28;18.50;99.90
8882;DHT22;4477;48.736;9.176;2022-08-19T00:59:58;18.40;99.90
8882;DHT22;4477;48.736;9.176;2022-08-19T01:02:28;18.30;99.90
8882;DHT22;4477;48.736;9.176;2022-08-19T01:04:56;18.30;99.90
8882;DHT22;4477;48.736;9.176;2022-08-19T01:07:23;18.20;99.90
8882;DHT22;4477;48.736;9.176;2022-08-19T01:09:50;18.10;99.90
8882;DHT22;4477;48.736;9.176;2022-08-19T01:12:18;18.10;99.90
8882;DHT22;4477;48.736;9.176;2022-08-19T01:14:45;18.10;99.90
8882;DHT22;4477;48.736;9.176;2022-08-19T01:17:12;18.10;99.90
8882;DHT22;4477;48.736;9.176;2022-08-19T01:19:43;18.10;99.90
8882;DHT22;4477;48.736;9.176;2022-08-19T01:22:16;18.10;99.90
8882;DHT22;4477;48.736;9.176;2022-08-19T01:24:47;18.20;99.90
8882;DHT22;4477;48.736;9.176;2022-08-19T01:27:14;18.20;99.90
8882;DHT22;4477;48.736;9.176;2022-08-19T01:29:43;18.20;99.90
8882;DHT22;4477;48.736;9.176;2022-08-19T01:32:12;18.20;99.90
8882;DHT22;4477;48.736;9.176;2022-08-19T01:34:40;18.20;99.90
8882;DHT22;4477;48.736;9.176;2022-08-19T01:37:10;18.20;99.90
8882;DHT22;4477;48.736;9.176;2022-08-19T01:39:38;18.20;99.90
8882;DHT22;4477;48.736;9.176;2022-08-19T01:42:08;18.20;99.90
8882;DHT22;4477;48.736;9.176;2022-08-19T01:44:38;18.20;99.90
8882;DHT22;4477;48.736;9.176;2022-08-19T01:47:06;18.20;99.90
8882;DHT22;4477;48.736;9.176;2022-08-19T01:49:35;18.20;99.90
8882;DHT22;4477;48.736;9.176;2022-08-19T01:52:03;18.20;99.90
8882;DHT22;4477;48.736;9.176;2022-08-19T01:54:30;18.20;99.90
8882;DHT22;4477;48.736;9.176;2022-08-19T01:57:00;18.20;99.90
8882;DHT22;4477;48.736;9.176;2022-08-19T01:59:29;18.20;99.90
8882;DHT22;4477;48.736;9.176;2022-08-19T02:01:57;18.10;99.90
8882;DHT22;4477;48.736;9.176;2022-08-19T02:04:23;18.20;99.90
8882;DHT22;4477;48.736;9.176;2022-08-19T02:06:51;18.20;99.90
8882;DHT22;4477;48.736;9.176;2022-08-19T02:09:18;18.20;99.90
8882;DHT22;4477;48.736;9.176;2022-08-19T02:11:45;18.20;99.90
8882;DHT22;4477;48.736;9.176;2022-08-19T02:14:11;18.20;99.90
8882;DHT22;4477;48.736;9.176;2022-08-19T02:16:40;18.20;99.90
8882;DHT22;4477;48.736;9.176;2022-08-19T02:19:06;18.20;99.90
8882;DHT22;4477;48.736;9.176;2022-08-19T02:21:34;18.20;99.90
8882;DHT22;4477;48.736;9.176;2022-08-19T02:24:01;18.10;99.90
8882;DHT22;4477;48.736;9.176;2022-08-19T02:26:28;18.20;99.90
8882;DHT22;4477;48.736;9.176;2022-08-19T02:28:55;18.10;99.90
8882;DHT22;4477;48.736;9.176;2022-08-19T02:31:24;18.10;99.90
8882;DHT22;4477;48.736;9.176;2022-08-19T02:33:53;18.00;99.90
8882;DHT22;4477;48.736;9.176;2022-08-19T02:36:21;18.00;99.90
8882;DHT22;4477;48.736;9.176;2022-08-19T02:38:48;18.00;99.90
8882;DHT22;4477;48.736;9.176;2022-08-19T02:41:17;18.00;99.90
8882;DHT22;4477;48.736;9.176;2022-08-19T02:43:45;18.10;99.90
8882;DHT22;4477;48.736;9.176;2022-08-19T02:46:14;18.10;99.90
8882;DHT22;4477;48.736;9.176;2022-08-19T02:48:43;18.00;99.90
8882;DHT22;4477;48.736;9.176;2022-08-19T02:51:18;18.10;99.90
8882;DHT22;4477;48.736;9.176;2022-08-19T02:53:45;18.10;99.90
8882;DHT22;4477;48.736;9.176;2022-08-19T02:56:11;18.10;99.90
8882;DHT22;4477;48.736;9.176;2022-08-19T02:58:38;18.00;99.90
8882;DHT22;4477;48.736;9.176;2022-08-19T03:01:06;18.00;99.90
8882;DHT22;4477;48.736;9.176;2022-08-19T03:03:33;18.00;99.90
8882;DHT22;4477;48.736;9.176;2022-08-19T03:06:05;18.00;99.90
8882;DHT22;4477;48.736;9.176;2022-08-19T03:08:34;17.90;99.90
8882;DHT22;4477;48.736;9.176;2022-08-19T03:11:01;17.70;99.90
8882;DHT22;4477;48.736;9.176;2022-08-19T03:13:28;17.70;99.90
8882;DHT22;4477;48.736;9.176;2022-08-19T03:15:56;17.60;99.90
8882;DHT22;4477;48.736;9.176;2022-08-19T03:18:23;17.60;99.90
8882;DHT22;4477;48.736;9.176;2022-08-19T03:20:52;17.50;99.90
8882;DHT22;4477;48.736;9.176;2022-08-19T03:23:20;17.60;99.90
8882;DHT22;4477;48.736;9.176;2022-08-19T03:25:50;17.60;99.90
8882;DHT22;4477;48.736;9.176;2022-08-19T03:28:19;17.50;99.90
8882;DHT22;4477;48.736;9.176;2022-08-19T03:30:57;17.60;99.90
8882;DHT22;4477;48.736;9.176;2022-08-19T03:33:26;17.50;99.90
8882;DHT22;4477;48.736;9.176;2022-08-19T03:36:01;17.60;99.90
8882;DHT22;4477;48.736;9.176;2022-08-19T03:38:29;17.50;99.90
8882;DHT22;4477;48.736;9.176;2022-08-19T03:41:03;17.50;99.90
8882;DHT22;4477;48.736;9.176;2022-08-19T03:43:32;17.50;99.90
8882;DHT22;4477;48.736;9.176;2022-08-19T03:46:01;17.60;99.90
8882;DHT22;4477;48.736;9.176;2022-08-19T03:48:29;17.50;99.90
8882;DHT22;4477;48.736;9.176;2022-08-19T03:50:57;17.50;99.90
8882;DHT22;4477;48.736;9.176;2022-08-19T03:53:26;17.50;99.90
8882;DHT22;4477;48.736;9.176;2022-08-19T03:55:54;17.60;99.90
8882;DHT22;4477;48.736;9.176;2022-08-19T03:58:23;17.50;99.90
8882;DHT22;4477;48.736;9.176;2022-08-19T04:00:49;17.60;99.90
8882;DHT22;4477;48.736;9.176;2022-08-19T04:03:16;17.60;99.90
8882;DHT22;4477;48.736;9.176;2022-08-19T04:05:45;17.60;99.90
8882;DHT22;4477;48.736;9.176;2022-08-19T04:08:13;17.60;99.90
8882;DHT22;4477;48.736;9.176;2022-08-19T04:10:44;17.60;99.90
8882;DHT22;4477;48.736;9.176;2022-08-19T04:13:11;17.60;99.90
8882;DHT22;4477;48.736;9.176;2022-08-19T04:15:41;17.60;99.90
8882;DHT22;4477;48.736;9.176;2022-08-19T04:18:08;17.60;99.90
8882;DHT22;4477;48.736;9.176;2022-08-19T04:20:40;17.60;99.90
8882;DHT22;4477;48.736;9.176;2022-08-19T04:23:07;17.60;99.90
8882;DHT22;4477;48.736;9.176;2022-08-19T04:25:39;17.60;99.90
8882;DHT22;4477;48.736;9.176;2022-08-19T04:28:06;17.60;99.90
8882;DHT22;4477;48.736;9.176;2022-08-19T04:30:41;17.60;99.90
8882;DHT22;4477;48.736;9.176;2022-08-19T04:33:08;17.60;99.90
8882;DHT22;4477;48.736;9.176;2022-08-19T04:35:37;17.60;99.90
8882;DHT22;4477;48.736;9.176;2022-08-19T04:38:05;17.60;99.90
8882;DHT22;4477;48.736;9.176;2022-08-19T04:40:32;17.60;99.90
8882;DHT22;4477;48.736;9.176;2022-08-19T04:43:17;17.60;99.90
8882;DHT22;4477;48.736;9.176;2022-08-19T04:45:46;17.60;99.90
8882;DHT22;4477;48.736;9.176;2022-08-19T04:48:12;17.60;99.90
8882;DHT22;4477;48.736;9.176;2022-08-19T04:50:41;17.70;99.90
8882;DHT22;4477;48.736;9.176;2022-08-19T04:53:09;17.70;99.90
8882;DHT22;4477;48.736;9.176;2022-08-19T04:55:39;17.70;99.90
8882;DHT22;4477;48.736;9.176;2022-08-19T04:58:06;17.80;99.90
8882;DHT22;4477;48.736;9.176;2022-08-19T05:00:33;17.80;99.90
8882;DHT22;4477;48.736;9.176;2022-08-19T05:03:01;17.80;99.90
8882;DHT22;4477;48.736;9.176;2022-08-19T05:05:28;17.80;99.90
8882;DHT22;4477;48.736;9.176;2022-08-19T05:07:57;17.90;99.90
8882;DHT22;4477;48.736;9.176;2022-08-19T05:10:24;17.90;99.90
8882;DHT22;4477;48.736;9.176;2022-08-19T05:12:50;17.90;99.90
8882;DHT22;4477;48.736;9.176;2022-08-19T05:15:17;17.90;99.90
8882;DHT22;4477;48.736;9.176;2022-08-19T05:17:45;18.00;99.90
8882;DHT22;4477;48.736;9.176;2022-08-19T05:20:27;18.10;99.90
8882;DHT22;4477;48.736;9.176;2022-08-19T05:23:12;18.20;99.90
8882;DHT22;4477;48.736;9.176;2022-08-19T05:25:42;18.10;99.90
8882;DHT22;4477;48.736;9.176;2022-08-19T05:28:10;18.10;99.90
8882;DHT22;4477;48.736;9.176;2022-08-19T05:30:36;18.20;99.90
8882;DHT22;4477;48.736;9.176;2022-08-19T05:33:03;18.20;99.90
8882;DHT22;4477;48.736;9.176;2022-08-19T05:35:31;18.20;99.90
8882;DHT22;4477;48.736;9.176;2022-08-19T05:37:58;18.20;99.90
8882;DHT22;4477;48.736;9.176;2022-08-19T05:40:25;18.20;99.90
8882;DHT22;4477;48.736;9.176;2022-08-19T05:42:52;18.20;99.90
8882;DHT22;4477;48.736;9.176;2022-08-19T05:45:19;18.20;99.90
8882;DHT22;4477;48.736;9.176;2022-08-19T05:47:47;18.20;99.90
8882;DHT22;4477;48.736;9.176;2022-08-19T05:50:14;18.20;99.90
8882;DHT22;4477;48.736;9.176;2022-08-19T05:52:44;18.20;99.90
8882;DHT22;4477;48.736;9.176;2022-08-19T05:55:11;18.30;99.90
8882;DHT22;4477;48.736;9.176;2022-08-19T05:57:38;18.30;99.90
8882;DHT22;4477;48.736;9.176;2022-08-19T06:00:06;18.30;99.90
8882;DHT22;4477;48.736;9.176;2022-08-19T06:02:35;18.40;99.90
8882;DHT22;4477;48.736;9.176;2022-08-19T06:05:03;18.40;99.90
8882;DHT22;4477;48.736;9.176;2022-08-19T06:07:32;18.40;99.90
8882;DHT22;4477;48.736;9.176;2022-08-19T06:10:01;18.40;99.90
8882;DHT22;4477;48.736;9.176;2022-08-19T06:12:28;18.40;99.90
8882;DHT22;4477;48.736;9.176;2022-08-19T06:15:00;18.40;99.90
8882;DHT22;4477;48.736;9.176;2022-08-19T06:17:27;18.40;99.90
8882;DHT22;4477;48.736;9.176;2022-08-19T06:19:55;18.40;99.90
8882;DHT22;4477;48.736;9.176;2022-08-19T06:22:22;18.40;99.90
8882;DHT22;4477;48.736;9.176;2022-08-19T06:24:52;18.50;99.90
8882;DHT22;4477;48.736;9.176;2022-08-19T06:27:21;18.50;99.90
8882;DHT22;4477;48.736;9.176;2022-08-19T06:29:48;18.50;99.90
8882;DHT22;4477;48.736;9.176;2022-08-19T06:32:17;18.50;99.90
8882;DHT22;4477;48.736;9.176;2022-08-19T06:34:44;18.50;99.90
8882;DHT22;4477;48.736;9.176;2022-08-19T06:37:11;18.40;99.90
8882;DHT22;4477;48.736;9.176;2022-08-19T06:39:40;18.30;99.90
8882;DHT22;4477;48.736;9.176;2022-08-19T06:42:08;18.20;99.90
8882;DHT22;4477;48.736;9.176;2022-08-19T06:44:41;18.10;99.90
8882;DHT22;4477;48.736;9.176;2022-08-19T06:47:11;18.00;99.90
8882;DHT22;4477;48.736;9.176;2022-08-19T06:49:38;17.90;99.90
8882;DHT22;4477;48.736;9.176;2022-08-19T06:52:05;17.80;99.90
8882;DHT22;4477;48.736;9.176;2022-08-19T06:54:32;17.70;99.90
8882;DHT22;4477;48.736;9.176;2022-08-19T06:57:01;17.60;99.90
8882;DHT22;4477;48.736;9.176;2022-08-19T06:59:29;17.60;99.90
8882;DHT22;4477;48.736;9.176;2022-08-19T07:02:02;17.50;99.90
8882;DHT22;4477;48.736;9.176;2022-08-19T07:04:31;17.50;99.90
8882;DHT22;4477;48.736;9.176;2022-08-19T07:07:01;17.50;99.90
8882;DHT22;4477;48.736;9.176;2022-08-19T07:09:28;17.50;99.90
8882;DHT22;4477;48.736;9.176;2022-08-19T07:11:56;17.50;99.90
8882;DHT22;4477;48.736;9.176;2022-08-19T07:14:25;17.50;99.90
8882;DHT22;4477;48.736;9.176;2022-08-19T07:16:53;17.60;99.90
8882;DHT22;4477;48.736;9.176;2022-08-19T07:19:25;17.60;99.90
8882;DHT22;4477;48.736;9.176;2022-08-19T07:21:53;17.60;99.90
8882;DHT22;4477;48.736;9.176;2022-08-19T07:24:22;17.60;99.90
8882;DHT22;4477;48.736;9.176;2022-08-19T07:26:53;17.70;99.90
8882;DHT22;4477;48.736;9.176;2022-08-19T07:29:23;17.70;99.90
8882;DHT22;4477;48.736;9.176;2022-08-19T07:31:50;17.70;99.90
8882;DHT22;4477;48.736;9.176;2022-08-19T07:34:18;17.70;99.90
8882;DHT22;4477;48.736;9.176;2022-08-19T07:36:46;17.70;99.90
8882;DHT22;4477;48.736;9.176;2022-08-19T07:39:16;17.70;99.90
8882;DHT22;4477;48.736;9.176;2022-08-19T07:41:44;17.80;99.90
8882;DHT22;4477;48.736;9.176;2022-08-19T07:44:12;17.80;99.90
8882;DHT22;4477;48.736;9.176;2022-08-19T07:46:42;17.80;99.90
8882;DHT22;4477;48.736;9.176;2022-08-19T07:49:11;17.80;99.90
8882;DHT22;4477;48.736;9.176;2022-08-19T07:51:43;17.80;99.90
8882;DHT22;4477;48.736;9.176;2022-08-19T07:54:11;17.70;99.90
8882;DHT22;4477;48.736;9.176;2022-08-19T07:56:38;17.60;99.90
8882;DHT22;4477;48.736;9.176;2022-08-19T07:59:06;17.40;99.90
8882;DHT22;4477;48.736;9.176;2022-08-19T08:01:33;17.30;99.90
8882;DHT22;4477;48.736;9.176;2022-08-19T08:04:00;17.20;99.90
8882;DHT22;4477;48.736;9.176;2022-08-19T08:06:44;17.20;99.90
8882;DHT22;4477;48.736;9.176;2022-08-19T08:09:33;17.10;99.90
8882;DHT22;4477;48.736;9.176;2022-08-19T08:12:03;17.00;99.90
8882;DHT22;4477;48.736;9.176;2022-08-19T08:14:34;17.00;99.90
8882;DHT22;4477;48.736;9.176;2022-08-19T08:17:02;17.00;99.90
8882;DHT22;4477;48.736;9.176;2022-08-19T08:19:30;17.00;99.90
8882;DHT22;4477;48.736;9.176;2022-08-19T08:21:58;16.90;99.90
8882;DHT22;4477;48.736;9.176;2022-08-19T08:24:27;16.80;99.90
8882;DHT22;4477;48.736;9.176;2022-08-19T08:26:57;16.80;99.90
8882;DHT22;4477;48.736;9.176;2022-08-19T08:29:24;16.80;99.90
8882;DHT22;4477;48.736;9.176;2022-08-19T08:31:51;16.80;99.90
8882;DHT22;4477;48.736;9.176;2022-08-19T08:34:20;16.80;99.90
8882;DHT22;4477;48.736;9.176;2022-08-19T08:36:47;16.70;99.90
8882;DHT22;4477;48.736;9.176;2022-08-19T08:39:18;16.70;99.90
8882;DHT22;4477;48.736;9.176;2022-08-19T08:41:51;16.70;99.90
8882;DHT22;4477;48.736;9.176;2022-08-19T08:44:37;16.80;99.90
8882;DHT22;4477;48.736;9.176;2022-08-19T08:47:10;16.80;99.90
8882;DHT22;4477;48.736;9.176;2022-08-19T08:49:43;16.80;99.90
8882;DHT22;4477;48.736;9.176;2022-08-19T08:52:17;16.80;99.90
8882;DHT22;4477;48.736;9.176;2022-08-19T08:54:47;16.80;99.90
8882;DHT22;4477;48.736;9.176;2022-08-19T08:57:19;16.90;99.90
8882;DHT22;4477;48.736;9.176;2022-08-19T08:59:49;17.00;99.90
8882;DHT22;4477;48.736;9.176;2022-08-19T09:02:17;17.10;99.90
8882;DHT22;4477;48.736;9.176;2022-08-19T09:04:45;17.20;99.90
8882;DHT22;4477;48.736;9.176;2022-08-19T09:07:22;17.30;99.90
8882;DHT22;4477;48.736;9.176;2022-08-19T09:09:54;17.30;99.90
8882;DHT22;4477;48.736;9.176;2022-08-19T09:12:31;17.40;99.90
8882;DHT22;4477;48.736;9.176;2022-08-19T09:15:07;17.40;99.90
8882;DHT22;4477;48.736;9.176;2022-08-19T09:17:35;17.40;99.90
8882;DHT22;4477;48.736;9.176;2022-08-19T09:20:08;17.40;99.90
8882;DHT22;4477;48.736;9.176;2022-08-19T09:22:41;17.40;99.90
8882;DHT22;4477;48.736;9.176;2022-08-19T09:25:11;17.40;99.90
8882;DHT22;4477;48.736;9.176;2022-08-19T09:27:40;17.40;99.90
8882;DHT22;4477;48.736;9.176;2022-08-19T09:30:12;17.40;99.90
8882;DHT22;4477;48.736;9.176;2022-08-19T09:32:39;17.50;99.90
8882;DHT22;4477;48.736;9.176;2022-08-19T09:35:08;17.50;99.90
8882;DHT22;4477;48.736;9.176;2022-08-19T09:37:35;17.50;99.90
8882;DHT22;4477;48.736;9.176;2022-08-19T09:40:03;17.60;99.90
8882;DHT22;4477;48.736;9.176;2022-08-19T09:42:30;17.60;99.90
8882;DHT22;4477;48.736;9.176;2022-08-19T09:44:57;17.60;99.90
8882;DHT22;4477;48.736;9.176;2022-08-19T09:47:25;17.60;99.90
8882;DHT22;4477;48.736;9.176;2022-08-19T09:49:52;17.60;99.90
8882;DHT22;4477;48.736;9.176;2022-08-19T09:52:20;17.70;99.90
8882;DHT22;4477;48.736;9.176;2022-08-19T09:54:47;17.70;99.90
8882;DHT22;4477;48.736;9.176;2022-08-19T09:57:18;17.70;99.90
8882;DHT22;4477;48.736;9.176;2022-08-19T09:59:45;17.60;99.90
8882;DHT22;4477;48.736;9.176;2022-08-19T10:02:14;17.60;99.90
8882;DHT22;4477;48.736;9.176;2022-08-19T10:04:42;17.60;99.90
8882;DHT22;4477;48.736;9.176;2022-08-19T10:07:26;17.70;99.90
8882;DHT22;4477;48.736;9.176;2022-08-19T10:09:54;17.80;99.90
8882;DHT22;4477;48.736;9.176;2022-08-19T10:12:21;17.80;99.90
8882;DHT22;4477;48.736;9.176;2022-08-19T10:14:48;17.90;99.90
8882;DHT22;4477;48.736;9.176;2022-08-19T10:17:16;17.90;99.90
8882;DHT22;4477;48.736;9.176;2022-08-19T10:19:45;17.90;99.90
8882;DHT22;4477;48.736;9.176;2022-08-19T10:22:12;17.90;99.90
8882;DHT22;4477;48.736;9.176;2022-08-19T10:24:40;17.90;99.90
8882;DHT22;4477;48.736;9.176;2022-08-19T10:27:07;17.90;99.90
8882;DHT22;4477;48.736;9.176;2022-08-19T10:29:35;17.90;99.90
8882;DHT22;4477;48.736;9.176;2022-08-19T10:32:04;17.90;99.90
8882;DHT22;4477;48.736;9.176;2022-08-19T10:34:34;17.90;99.90
8882;DHT22;4477;48.736;9.176;2022-08-19T10:37:04;17.90;99.90
8882;DHT22;4477;48.736;9.176;2022-08-19T10:39:33;18.00;99.90
8882;DHT22;4477;48.736;9.176;2022-08-19T10:42:05;18.00;99.90
8882;DHT22;4477;48.736;9.176;2022-08-19T10:44:33;18.10;99.90
8882;DHT22;4477;48.736;9.176;2022-08-19T10:47:01;18.10;99.90
8882;DHT22;4477;48.736;9.176;2022-08-19T10:49:28;18.20;99.90
8882;DHT22;4477;48.736;9.176;2022-08-19T10:51:55;18.20;99.90
8882;DHT22;4477;48.736;9.176;2022-08-19T10:54:42;18.20;99.90
8882;DHT22;4477;48.736;9.176;2022-08-19T10:57:30;18.30;99.90
8882;DHT22;4477;48.736;9.176;2022-08-19T10:59:57;18.40;99.90
8882;DHT22;4477;48.736;9.176;2022-08-19T11:02:24;18.40;99.90
8882;DHT22;4477;48.736;9.176;2022-08-19T11:04:51;18.60;99.90
8882;DHT22;4477;48.736;9.176;2022-08-19T11:07:18;18.60;99.90
8882;DHT22;4477;48.736;9.176;2022-08-19T11:09:46;18.50;99.90
8882;DHT22;4477;48.736;9.176;2022-08-19T11:12:13;18.40;99.90
8882;DHT22;4477;48.736;9.176;2022-08-19T11:14:40;18.30;99.90
8882;DHT22;4477;48.736;9.176;2022-08-19T11:17:07;18.20;99.90
8882;DHT22;4477;48.736;9.176;2022-08-19T11:19:36;18.10;99.90
8882;DHT22;4477;48.736;9.176;2022-08-19T11:22:03;17.90;99.90
8882;DHT22;4477;48.736;9.176;2022-08-19T11:24:30;17.90;99.90
8882;DHT22;4477;48.736;9.176;2022-08-19T11:27:03;17.90;99.90
8882;DHT22;4477;48.736;9.176;2022-08-19T11:29:31;18.10;99.90
8882;DHT22;4477;48.736;9.176;2022-08-19T11:32:02;18.20;99.90
8882;DHT22;4477;48.736;9.176;2022-08-19T11:34:30;18.30;99.90
8882;DHT22;4477;48.736;9.176;2022-08-19T11:36:57;18.50;99.90
8882;DHT22;4477;48.736;9.176;2022-08-19T11:39:26;18.80;99.90
8882;DHT22;4477;48.736;9.176;2022-08-19T11:41:54;19.00;99.90
8882;DHT22;4477;48.736;9.176;2022-08-19T11:44:22;19.10;99.90
8882;DHT22;4477;48.736;9.176;2022-08-19T11:46:49;19.30;99.90
8882;DHT22;4477;48.736;9.176;2022-08-19T11:49:19;19.60;99.90
8882;DHT22;4477;48.736;9.176;2022-08-19T11:51:47;19.80;99.90
8882;DHT22;4477;48.736;9.176;2022-08-19T11:54:16;20.10;99.90
8882;DHT22;4477;48.736;9.176;2022-08-19T11:56:43;20.20;99.90
8882;DHT22;4477;48.736;9.176;2022-08-19T11:59:11;20.30;99.90
8882;DHT22;4477;48.736;9.176;2022-08-19T12:01:39;20.50;99.90
8882;DHT22;4477;48.736;9.176;2022-08-19T12:04:08;20.50;99.90
8882;DHT22;4477;48.736;9.176;2022-08-19T12:06:38;20.70;99.90
8882;DHT22;4477;48.736;9.176;2022-08-19T12:09:07;20.90;99.90
8882;DHT22;4477;48.736;9.176;2022-08-19T12:11:36;21.10;99.90
8882;DHT22;4477;48.736;9.176;2022-08-19T12:14:04;21.10;99.90
8882;DHT22;4477;48.736;9.176;2022-08-19T12:16:32;21.10;99.90
8882;DHT22;4477;48.736;9.176;2022-08-19T12:19:01;21.00;99.90
8882;DHT22;4477;48.736;9.176;2022-08-19T12:21:31;21.00;99.90
8882;DHT22;4477;48.736;9.176;2022-08-19T12:23:59;20.90;99.90
8882;DHT22;4477;48.736;9.176;2022-08-19T12:26:29;20.90;99.90
8882;DHT22;4477;48.736;9.176;2022-08-19T12:28:57;20.80;99.90
8882;DHT22;4477;48.736;9.176;2022-08-19T12:31:24;20.80;99.90
8882;DHT22;4477;48.736;9.176;2022-08-19T12:33:51;20.70;99.90
8882;DHT22;4477;48.736;9.176;2022-08-19T12:36:20;20.50;99.90
8882;DHT22;4477;48.736;9.176;2022-08-19T12:38:47;20.40;99.90
8882;DHT22;4477;48.736;9.176;2022-08-19T12:41:16;20.30;99.90
8882;DHT22;4477;48.736;9.176;2022-08-19T12:43:44;20.20;99.90
8882;DHT22;4477;48.736;9.176;2022-08-19T12:46:11;20.00;99.90
8882;DHT22;4477;48.736;9.176;2022-08-19T12:48:38;19.80;99.90
8882;DHT22;4477;48.736;9.176;2022-08-19T12:51:12;19.60;99.90
8882;DHT22;4477;48.736;9.176;2022-08-19T12:53:41;19.40;99.90
8882;DHT22;4477;48.736;9.176;2022-08-19T12:56:09;19.30;99.90
8882;DHT22;4477;48.736;9.176;2022-08-19T12:58:36;19.20;99.90
8882;DHT22;4477;48.736;9.176;2022-08-19T13:01:07;19.30;99.90
8882;DHT22;4477;48.736;9.176;2022-08-19T13:03:36;19.40;99.90
8882;DHT22;4477;48.736;9.176;2022-08-19T13:06:03;19.60;99.90
8882;DHT22;4477;48.736;9.176;2022-08-19T13:08:30;19.70;99.90
8882;DHT22;4477;48.736;9.176;2022-08-19T13:11:07;19.80;99.90
8882;DHT22;4477;48.736;9.176;2022-08-19T13:13:36;19.90;99.90
8882;DHT22;4477;48.736;9.176;2022-08-19T13:16:03;20.10;99.90
8882;DHT22;4477;48.736;9.176;2022-08-19T13:18:30;19.90;99.90
8882;DHT22;4477;48.736;9.176;2022-08-19T13:21:01;20.00;99.90
8882;DHT22;4477;48.736;9.176;2022-08-19T13:23:29;20.10;99.90
8882;DHT22;4477;48.736;9.176;2022-08-19T13:26:01;20.10;99.90
8882;DHT22;4477;48.736;9.176;2022-08-19T13:28:29;19.90;99.90
8882;DHT22;4477;48.736;9.176;2022-08-19T13:31:17;19.80;99.90
8882;DHT22;4477;48.736;9.176;2022-08-19T13:34:02;19.80;99.90
8882;DHT22;4477;48.736;9.176;2022-08-19T13:36:29;19.70;99.90
8882;DHT22;4477;48.736;9.176;2022-08-19T13:38:56;19.60;99.90
8882;DHT22;4477;48.736;9.176;2022-08-19T13:41:24;19.40;99.90
8882;DHT22;4477;48.736;9.176;2022-08-19T13:43:52;19.40;99.90
8882;DHT22;4477;48.736;9.176;2022-08-19T13:46:19;19.30;99.90
8882;DHT22;4477;48.736;9.176;2022-08-19T13:48:47;19.20;99.90
8882;DHT22;4477;48.736;9.176;2022-08-19T13:51:14;19.10;99.90
8882;DHT22;4477;48.736;9.176;2022-08-19T13:53:42;19.10;99.90
8882;DHT22;4477;48.736;9.176;2022-08-19T13:56:11;19.10;99.90
8882;DHT22;4477;48.736;9.176;2022-08-19T13:58:40;19.00;99.90
8882;DHT22;4477;48.736;9.176;2022-08-19T14:01:09;18.90;99.90
8882;DHT22;4477;48.736;9.176;2022-08-19T14:03:37;18.90;99.90
8882;DHT22;4477;48.736;9.176;2022-08-19T14:06:05;18.80;99.90
8882;DHT22;4477;48.736;9.176;2022-08-19T14:08:32;18.80;99.90
8882;DHT22;4477;48.736;9.176;2022-08-19T14:10:59;18.80;99.90
8882;DHT22;4477;48.736;9.176;2022-08-19T14:13:25;18.80;99.90
8882;DHT22;4477;48.736;9.176;2022-08-19T14:15:54;18.70;99.90
8882;DHT22;4477;48.736;9.176;2022-08-19T14:18:21;18.70;99.90
8882;DHT22;4477;48.736;9.176;2022-08-19T14:20:48;18.80;99.90
8882;DHT22;4477;48.736;9.176;2022-08-19T14:23:15;18.80;99.90
8882;DHT22;4477;48.736;9.176;2022-08-19T14:25:43;18.90;99.90
8882;DHT22;4477;48.736;9.176;2022-08-19T14:28:11;19.10;99.90
8882;DHT22;4477;48.736;9.176;2022-08-19T14:30:38;19.30;99.90
8882;DHT22;4477;48.736;9.176;2022-08-19T14:33:07;19.40;99.90
8882;DHT22;4477;48.736;9.176;2022-08-19T14:35:34;19.40;99.90
8882;DHT22;4477;48.736;9.176;2022-08-19T14:38:02;19.50;99.90
8882;DHT22;4477;48.736;9.176;2022-08-19T14:40:30;19.50;99.90
8882;DHT22;4477;48.736;9.176;2022-08-19T14:43:00;19.70;99.90
8882;DHT22;4477;48.736;9.176;2022-08-19T14:45:31;19.70;99.90
8882;DHT22;4477;48.736;9.176;2022-08-19T14:47:59;19.90;99.90
8882;DHT22;4477;48.736;9.176;2022-08-19T14:50:27;20.10;99.90
8882;DHT22;4477;48.736;9.176;2022-08-19T14:52:59;20.20;99.90
8882;DHT22;4477;48.736;9.176;2022-08-19T14:55:26;20.40;99.90
8882;DHT22;4477;48.736;9.176;2022-08-19T14:57:53;20.40;99.90
8882;DHT22;4477;48.736;9.176;2022-08-19T15:00:21;20.60;99.90
8882;DHT22;4477;48.736;9.176;2022-08-19T15:02:48;20.70;99.90
8882;DHT22;4477;48.736;9.176;2022-08-19T15:05:16;20.70;99.90
8882;DHT22;4477;48.736;9.176;2022-08-19T15:07:44;20.60;99.90
8882;DHT22;4477;48.736;9.176;2022-08-19T15:10:13;20.40;99.90
8882;DHT22;4477;48.736;9.176;2022-08-19T15:12:40;20.20;99.90
8882;DHT22;4477;48.736;9.176;2022-08-19T15:15:10;20.10;99.90
8882;DHT22;4477;48.736;9.176;2022-08-19T15:17:38;20.00;99.90
8882;DHT22;4477;48.736;9.176;2022-08-19T15:20:07;20.10;99.90
8882;DHT22;4477;48.736;9.176;2022-08-19T15:22:34;20.30;99.90
8882;DHT22;4477;48.736;9.176;2022-08-19T15:25:03;20.60;99.90
8882;DHT22;4477;48.736;9.176;2022-08-19T15:27:30;20.70;99.90
8882;DHT22;4477;48.736;9.176;2022-08-19T15:29:57;20.90;99.90
8882;DHT22;4477;48.736;9.176;2022-08-19T15:32:24;21.10;99.90
8882;DHT22;4477;48.736;9.176;2022-08-19T15:34:52;21.20;99.90
8882;DHT22;4477;48.736;9.176;2022-08-19T15:37:19;21.30;99.90
8882;DHT22;4477;48.736;9.176;2022-08-19T15:39:48;21.30;99.90
8882;DHT22;4477;48.736;9.176;2022-08-19T15:42:17;21.10;99.90
8882;DHT22;4477;48.736;9.176;2022-08-19T15:44:44;21.20;99.90
8882;DHT22;4477;48.736;9.176;2022-08-19T15:47:11;21.40;99.90
8882;DHT22;4477;48.736;9.176;2022-08-19T15:49:38;21.50;99.90
8882;DHT22;4477;48.736;9.176;2022-08-19T15:52:05;21.60;99.90
8882;DHT22;4477;48.736;9.176;2022-08-19T15:54:32;21.60;99.90
8882;DHT22;4477;48.736;9.176;2022-08-19T15:56:59;21.60;99.90
8882;DHT22;4477;48.736;9.176;2022-08-19T15:59:45;21.70;99.90
8882;DHT22;4477;48.736;9.176;2022-08-19T16:02:30;21.90;99.90
8882;DHT22;4477;48.736;9.176;2022-08-19T16:05:17;22.30;99.90
8882;DHT22;4477;48.736;9.176;2022-08-19T16:08:03;22.90;99.90
8882;DHT22;4477;48.736;9.176;2022-08-19T16:10:30;23.10;99.90
8882;DHT22;4477;48.736;9.176;2022-08-19T16:12:57;23.70;99.90